createdAt,value
2017-06-05T04:56:39.195Z,5.83
2017-06-05T04:59:05.959Z,5.87
2017-06-05T05:01:32.699Z,6.00
2017-06-05T05:03:59.487Z,5.13
2017-06-05T05:06:26.232Z,7.17
2017-06-05T05:08:52.982Z,5.33
2017-06-05T05:11:19.804Z,5.50
2017-06-05T05:13:46.581Z,5.57
2017-06-05T05:16:13.335Z,6.50
2017-06-05T05:18:40.134Z,5.13
2017-06-05T05:21:06.875Z,5.37
2017-06-05T05:23:33.647Z,6.40
2017-06-05T05:26:00.454Z,5.50
2017-06-05T05:28:27.224Z,5.17
2017-06-05T05:30:53.971Z,4.90
2017-06-05T05:33:21.281Z,4.30
2017-06-05T05:35:48.049Z,4.23
2017-06-05T05:38:14.795Z,3.80
2017-06-05T05:40:41.598Z,4.97
2017-06-05T05:43:08.359Z,4.33
2017-06-05T05:45:35.108Z,4.77
2017-06-05T05:48:01.917Z,6.43
2017-06-05T05:50:28.680Z,4.53
2017-06-05T05:52:55.434Z,5.10
2017-06-05T05:55:22.242Z,4.60
2017-06-05T05:57:49.008Z,4.97
2017-06-05T06:00:15.751Z,5.10
2017-06-05T06:02:42.555Z,5.07
2017-06-05T06:05:09.330Z,7.40
2017-06-05T06:07:36.104Z,4.37
2017-06-05T06:10:02.920Z,4.43
2017-06-05T06:12:29.666Z,3.40
2017-06-05T06:14:56.417Z,3.00
2017-06-05T06:17:23.238Z,2.90
2017-06-05T06:19:49.980Z,2.60
2017-06-05T06:22:16.715Z,2.40
2017-06-05T06:24:43.558Z,2.63
2017-06-05T06:27:10.348Z,2.60
2017-06-05T06:29:37.154Z,2.90
2017-06-05T06:32:04.073Z,2.50
2017-06-05T06:34:30.871Z,3.20
2017-06-05T06:36:57.635Z,2.37
2017-06-05T06:39:24.509Z,3.40
2017-06-05T06:41:51.270Z,2.47
2017-06-05T06:44:18.023Z,2.83
2017-06-05T06:46:44.850Z,2.40
2017-06-05T06:49:11.613Z,2.90
2017-06-05T06:51:38.391Z,2.43
2017-06-05T06:54:05.176Z,2.40
2017-06-05T06:56:31.937Z,2.80
2017-06-05T06:58:58.726Z,2.50
2017-06-05T07:01:25.522Z,2.77
2017-06-05T07:03:52.280Z,3.03
2017-06-05T07:06:19.029Z,2.80
2017-06-05T07:08:45.855Z,3.23
2017-06-05T07:11:12.649Z,2.40
2017-06-05T07:13:39.421Z,2.53
2017-06-05T07:16:06.190Z,2.13
2017-06-05T07:18:32.995Z,1.80
2017-06-05T07:20:59.756Z,2.10
2017-06-05T07:23:26.561Z,2.57
2017-06-05T07:25:53.401Z,2.40
2017-06-05T07:28:20.155Z,2.10
2017-06-05T07:30:47.014Z,1.70
2017-06-05T07:33:13.803Z,2.50
2017-06-05T07:35:40.544Z,3.17
2017-06-05T07:38:07.354Z,1.80
2017-06-05T07:40:34.136Z,1.90
2017-06-05T07:43:01.066Z,1.53
2017-06-05T07:45:27.868Z,2.10
2017-06-05T07:47:54.619Z,1.67
2017-06-05T07:50:21.367Z,2.00
2017-06-05T07:52:48.146Z,1.63
2017-06-05T07:55:14.929Z,1.80
2017-06-05T07:57:41.744Z,2.00
2017-06-05T08:00:08.543Z,2.00
2017-06-05T08:02:35.331Z,1.77
2017-06-05T08:05:02.092Z,2.53
2017-06-05T08:07:28.907Z,1.73
2017-06-05T08:09:55.682Z,2.00
2017-06-05T08:12:22.482Z,2.00
2017-06-05T08:14:49.326Z,1.80
2017-06-05T08:17:16.098Z,2.00
2017-06-05T08:19:42.877Z,2.00
2017-06-05T08:22:09.671Z,2.77
2017-06-05T08:24:36.467Z,1.90
2017-06-05T08:27:03.241Z,2.00
2017-06-05T08:29:30.056Z,2.00
2017-06-05T08:31:56.834Z,2.10
2017-06-05T08:34:23.613Z,2.00
2017-06-05T08:36:50.397Z,2.00
2017-06-05T08:39:17.177Z,1.83
2017-06-05T08:41:43.946Z,1.97
2017-06-05T08:44:10.742Z,1.47
2017-06-05T08:46:37.491Z,1.97
2017-06-05T08:49:04.281Z,1.30
2017-06-05T08:51:31.060Z,1.60
2017-06-05T08:53:57.827Z,2.30
2017-06-05T08:56:24.593Z,1.70
2017-06-05T08:58:51.397Z,1.70
2017-06-05T09:01:18.158Z,1.80
2017-06-05T09:03:44.913Z,1.87
2017-06-05T09:06:11.699Z,1.80
2017-06-05T09:08:38.515Z,1.83
2017-06-05T09:11:05.252Z,1.93
2017-06-05T09:13:32.104Z,1.97
2017-06-05T09:15:58.884Z,2.53
2017-06-05T09:18:25.648Z,1.60
2017-06-05T09:20:52.493Z,1.70
2017-06-05T09:23:19.318Z,2.67
2017-06-05T09:25:46.094Z,1.03
2017-06-05T09:28:12.926Z,1.60
2017-06-05T09:30:39.690Z,1.50
2017-06-05T09:33:06.463Z,1.50
2017-06-05T09:35:33.314Z,1.73
2017-06-05T09:38:00.094Z,2.10
2017-06-05T09:40:26.887Z,2.80
2017-06-05T09:42:53.695Z,1.93
2017-06-05T09:45:20.486Z,1.60
2017-06-05T09:47:47.226Z,1.50
2017-06-05T09:50:14.033Z,1.70
2017-06-05T09:52:40.794Z,1.90
2017-06-05T09:55:07.562Z,1.53
2017-06-05T09:57:34.378Z,1.90
2017-06-05T10:00:01.141Z,1.87
2017-06-05T10:02:27.953Z,0.80
2017-06-05T10:04:54.763Z,1.57
2017-06-05T10:07:21.539Z,1.97
2017-06-05T10:09:48.313Z,1.80
2017-06-05T10:12:15.091Z,1.30
2017-06-05T10:14:41.845Z,1.90
2017-06-05T10:17:08.622Z,1.90
2017-06-05T10:19:35.419Z,1.50
2017-06-05T10:22:02.193Z,1.43
2017-06-05T10:24:29.069Z,1.60
2017-06-05T10:26:55.904Z,1.60
2017-06-05T10:29:22.685Z,1.53
2017-06-05T10:31:49.446Z,1.93
2017-06-05T10:34:16.228Z,1.43
2017-06-05T10:36:42.987Z,2.03
2017-06-05T10:39:09.741Z,1.60
2017-06-05T10:41:36.563Z,3.37
2017-06-05T10:44:03.324Z,1.73
2017-06-05T10:46:30.098Z,1.43
2017-06-05T10:48:56.903Z,1.30
2017-06-05T10:51:23.667Z,1.50
2017-06-05T10:53:50.448Z,1.50
2017-06-05T10:56:17.253Z,1.47
2017-06-05T10:58:44.025Z,1.30
2017-06-05T11:01:10.781Z,2.07
2017-06-05T11:03:37.555Z,1.50
2017-06-05T11:06:04.303Z,2.00
2017-06-05T11:08:31.065Z,1.50
2017-06-05T11:10:57.866Z,1.33
2017-06-05T11:13:24.622Z,1.43
2017-06-05T11:15:51.403Z,2.00
2017-06-05T11:18:18.225Z,1.67
2017-06-05T11:20:44.984Z,1.53
2017-06-05T11:23:11.759Z,1.60
2017-06-05T11:25:38.581Z,1.50
2017-06-05T11:28:05.370Z,1.17
2017-06-05T11:30:32.174Z,1.30
2017-06-05T11:32:58.960Z,2.20
2017-06-05T11:35:25.860Z,2.00
2017-06-05T11:37:52.624Z,0.90
2017-06-05T11:40:19.442Z,1.50
2017-06-05T11:42:46.216Z,1.37
2017-06-05T11:45:13.018Z,1.50
2017-06-05T11:47:39.797Z,1.23
2017-06-05T11:50:06.543Z,1.40
2017-06-05T11:52:33.545Z,1.60
2017-06-05T11:55:00.346Z,2.30
2017-06-05T11:57:27.092Z,1.83
2017-06-05T11:59:53.833Z,1.70
2017-06-05T12:02:20.626Z,1.60
2017-06-05T12:04:47.395Z,1.83
2017-06-05T12:07:14.133Z,1.80
2017-06-05T12:09:40.910Z,2.30
2017-06-05T12:12:07.680Z,2.00
2017-06-05T12:14:34.443Z,1.70
2017-06-05T12:17:01.233Z,1.97
2017-06-05T12:19:27.994Z,1.70
2017-06-05T12:21:54.743Z,1.97
2017-06-05T12:24:21.547Z,1.70
2017-06-05T12:26:48.323Z,1.90
2017-06-05T12:29:15.098Z,1.30
2017-06-05T12:31:41.879Z,1.30
2017-06-05T12:34:08.660Z,1.37
2017-06-05T12:36:35.443Z,1.47
2017-06-05T12:39:02.289Z,1.80
2017-06-05T12:41:29.088Z,1.70
2017-06-05T12:43:55.899Z,1.47
2017-06-05T12:46:22.752Z,1.63
2017-06-05T12:48:49.587Z,1.50
2017-06-05T12:51:16.494Z,1.23
2017-06-05T12:53:43.298Z,1.33
2017-06-05T12:56:10.103Z,2.10
2017-06-05T12:58:36.869Z,1.60
2017-06-05T13:01:03.676Z,1.83
2017-06-05T13:03:30.433Z,1.33
2017-06-05T13:05:57.225Z,1.20
2017-06-05T13:08:24.036Z,1.03
2017-06-05T13:10:50.783Z,1.67
2017-06-05T13:13:17.552Z,1.77
2017-06-05T13:15:44.384Z,1.60
2017-06-05T13:18:11.157Z,1.67
2017-06-05T13:20:37.891Z,1.50
2017-06-05T13:23:04.675Z,1.70
2017-06-05T13:25:31.493Z,1.30
2017-06-05T13:27:58.242Z,1.57
2017-06-05T13:30:25.049Z,1.47
2017-06-05T13:32:51.802Z,1.40
2017-06-05T13:35:18.574Z,1.47
2017-06-05T13:37:45.390Z,1.73
2017-06-05T13:40:12.169Z,1.37
2017-06-05T13:42:38.939Z,1.60
2017-06-05T13:45:05.755Z,1.80
2017-06-05T13:47:32.536Z,2.10
2017-06-05T13:50:00.239Z,2.00
2017-06-05T13:52:27.027Z,1.87
2017-06-05T13:54:53.812Z,1.67
2017-06-05T13:57:20.598Z,1.50
2017-06-05T13:59:47.418Z,1.73
2017-06-05T14:02:14.194Z,1.50
2017-06-05T14:04:40.960Z,1.80
2017-06-05T14:07:07.799Z,1.37
2017-06-05T14:09:34.616Z,1.60
2017-06-05T14:12:01.423Z,1.53
2017-06-05T14:14:28.865Z,1.53
2017-06-05T14:16:55.654Z,1.90
2017-06-05T14:19:22.499Z,1.50
2017-06-05T14:21:49.302Z,1.67
2017-06-05T14:24:16.053Z,1.60
2017-06-05T14:26:42.830Z,1.60
2017-06-05T14:29:09.674Z,1.10
2017-06-05T14:31:36.481Z,1.67
2017-06-05T14:34:03.290Z,1.37
2017-06-05T14:36:30.117Z,1.30
2017-06-05T14:38:56.913Z,1.43
2017-06-05T14:41:23.674Z,1.57
2017-06-05T14:43:50.456Z,1.27
2017-06-05T14:46:17.192Z,1.40
2017-06-05T14:48:43.953Z,1.40
2017-06-05T14:51:10.744Z,1.17
2017-06-05T14:53:37.518Z,1.47
2017-06-05T14:56:04.274Z,2.17
2017-06-05T14:58:31.112Z,1.50
2017-06-05T15:00:57.894Z,1.93
2017-06-05T15:03:24.637Z,2.13
2017-06-05T15:05:51.417Z,1.53
2017-06-05T15:08:18.194Z,3.60
2017-06-05T15:10:44.973Z,1.57
2017-06-05T15:13:11.793Z,1.70
2017-06-05T15:15:38.597Z,1.43
2017-06-05T15:18:05.361Z,1.23
2017-06-05T15:20:32.135Z,1.20
2017-06-05T15:22:59.019Z,1.70
2017-06-05T15:25:26.711Z,1.07
2017-06-05T15:27:53.529Z,1.27
2017-06-05T15:30:20.298Z,1.30
2017-06-05T15:32:47.058Z,1.30
2017-06-05T15:35:13.863Z,1.30
2017-06-05T15:37:40.650Z,1.53
2017-06-05T15:40:07.441Z,1.60
2017-06-05T15:42:34.347Z,1.47
2017-06-05T15:45:01.129Z,1.67
2017-06-05T15:47:27.868Z,1.70
2017-06-05T15:49:54.672Z,1.80
2017-06-05T15:52:21.427Z,1.30
2017-06-05T15:54:48.190Z,1.50
2017-06-05T15:57:15.054Z,1.70
2017-06-05T15:59:41.817Z,2.03
2017-06-05T16:02:08.598Z,1.60
2017-06-05T16:04:35.401Z,1.40
2017-06-05T16:07:02.225Z,1.30
2017-06-05T16:09:28.986Z,1.90
2017-06-05T16:11:55.783Z,1.00
2017-06-05T16:14:22.528Z,1.40
2017-06-05T16:16:49.276Z,1.27
2017-06-05T16:21:53.641Z,1.57
2017-06-05T16:24:20.406Z,1.23
2017-06-05T16:26:47.186Z,1.43
2017-06-05T16:29:14.110Z,1.30
2017-06-05T16:31:40.946Z,1.20
2017-06-05T16:34:07.822Z,1.20
2017-06-05T16:36:35.536Z,1.57
2017-06-05T16:39:02.303Z,1.50
2017-06-05T16:41:29.059Z,1.30
2017-06-05T16:43:55.854Z,1.60
2017-06-05T16:46:22.687Z,1.70
2017-06-05T16:48:49.435Z,1.40
2017-06-05T16:51:16.247Z,1.27
2017-06-05T16:53:43.049Z,1.47
2017-06-05T16:56:09.806Z,1.60
2017-06-05T16:58:36.610Z,1.20
2017-06-05T17:01:03.403Z,1.50
2017-06-05T17:03:30.142Z,1.23
2017-06-05T17:05:56.942Z,1.43
2017-06-05T17:08:23.761Z,1.27
2017-06-05T17:10:50.576Z,1.00
2017-06-05T17:13:17.529Z,1.10
2017-06-05T17:15:44.330Z,1.50
2017-06-05T17:18:11.114Z,1.37
2017-06-05T17:20:37.934Z,1.20
2017-06-05T17:23:04.713Z,1.43
2017-06-05T17:25:31.531Z,1.47
2017-06-05T17:27:58.462Z,1.37
2017-06-05T17:30:25.260Z,1.63
2017-06-05T17:32:52.034Z,1.30
2017-06-05T17:35:18.878Z,1.33
2017-06-05T17:37:45.654Z,1.40
2017-06-05T17:40:12.395Z,1.40
2017-06-05T17:42:39.206Z,1.40
2017-06-05T17:45:05.998Z,1.50
2017-06-05T17:47:32.751Z,1.80
2017-06-05T17:49:59.608Z,1.30
2017-06-05T17:52:26.370Z,1.20
2017-06-05T17:54:53.150Z,1.60
2017-06-05T17:57:19.936Z,1.47
2017-06-05T17:59:46.727Z,1.50
2017-06-05T18:02:13.483Z,1.40
2017-06-05T18:04:40.291Z,1.70
2017-06-05T18:07:07.204Z,1.30
2017-06-05T18:09:34.162Z,1.73
2017-06-05T18:12:00.943Z,1.50
2017-06-05T18:14:27.734Z,1.50
2017-06-05T18:16:54.631Z,1.57
2017-06-05T18:19:21.448Z,1.60
2017-06-05T18:21:48.281Z,1.73
2017-06-05T18:24:15.045Z,1.50
2017-06-05T18:26:41.883Z,1.70
2017-06-05T18:29:08.711Z,1.57
2017-06-05T18:31:35.581Z,1.53
2017-06-05T18:34:02.379Z,1.70
2017-06-05T18:36:29.140Z,1.40
2017-06-05T18:38:55.907Z,1.43
2017-06-05T18:41:22.719Z,1.23
2017-06-05T18:43:49.468Z,1.40
2017-06-05T18:46:16.242Z,1.40
2017-06-05T18:48:43.028Z,1.23
2017-06-05T18:51:09.817Z,1.10
2017-06-05T18:53:36.583Z,1.50
2017-06-05T18:56:03.391Z,1.87
2017-06-05T18:58:30.195Z,1.50
2017-06-05T19:00:56.991Z,1.50
2017-06-05T19:03:23.798Z,1.20
2017-06-05T19:05:50.563Z,1.80
2017-06-05T19:08:17.356Z,1.40
2017-06-05T19:10:44.136Z,1.63
2017-06-05T19:13:10.909Z,1.67
2017-06-05T19:15:37.690Z,1.50
2017-06-05T19:18:04.529Z,2.13
2017-06-05T19:20:31.299Z,1.70
2017-06-05T19:22:58.052Z,1.60
2017-06-05T19:25:24.853Z,1.40
2017-06-05T19:27:51.657Z,2.00
2017-06-05T19:30:18.429Z,3.77
2017-06-05T19:32:45.240Z,2.47
2017-06-05T19:35:12.067Z,2.20
2017-06-05T19:37:38.823Z,1.80
2017-06-05T19:40:05.668Z,1.50
2017-06-05T19:42:32.423Z,2.10
2017-06-05T19:44:59.242Z,1.70
2017-06-05T19:47:26.084Z,2.50
2017-06-05T19:49:52.872Z,2.00
2017-06-05T19:52:19.664Z,1.93
2017-06-05T19:54:46.467Z,2.53
2017-06-05T19:57:13.239Z,1.93
2017-06-05T19:59:40.013Z,2.10
2017-06-05T20:02:06.794Z,2.00
2017-06-05T20:04:33.587Z,1.90
2017-06-05T20:07:00.362Z,2.43
2017-06-05T20:09:27.165Z,1.93
2017-06-05T20:11:53.932Z,2.10
2017-06-05T20:14:20.684Z,2.30
2017-06-05T20:16:47.472Z,2.20
2017-06-05T20:19:14.249Z,2.37
2017-06-05T20:21:41.035Z,2.80
2017-06-05T20:24:07.886Z,2.60
2017-06-05T20:26:34.730Z,2.53
2017-06-05T20:29:01.506Z,2.33
2017-06-05T20:31:28.382Z,2.37
2017-06-05T20:33:55.132Z,3.10
2017-06-05T20:36:21.978Z,2.53
2017-06-05T20:38:48.778Z,2.33
2017-06-05T20:41:15.548Z,4.40
2017-06-05T20:43:42.308Z,2.40
2017-06-05T20:46:09.118Z,2.37
2017-06-05T20:48:35.882Z,2.60
2017-06-05T20:51:02.624Z,2.40
2017-06-05T20:53:29.420Z,2.20
2017-06-05T20:55:56.177Z,2.40
2017-06-05T20:58:22.954Z,2.50
2017-06-05T21:00:49.755Z,2.27
2017-06-05T21:03:16.560Z,2.17
2017-06-05T21:05:43.317Z,2.80
2017-06-05T21:08:10.211Z,2.77
2017-06-05T21:10:36.996Z,2.50
2017-06-05T21:13:03.775Z,2.23
2017-06-05T21:15:30.586Z,2.53
2017-06-05T21:17:57.357Z,2.07
2017-06-05T21:20:24.146Z,2.60
2017-06-05T21:22:50.928Z,2.90
2017-06-05T21:25:17.701Z,2.40
2017-06-05T21:27:44.500Z,2.63
2017-06-05T21:30:11.333Z,2.63
2017-06-05T21:32:38.106Z,2.67
2017-06-05T21:35:04.854Z,2.20
2017-06-05T21:37:31.663Z,2.43
2017-06-05T21:39:58.439Z,2.30
2017-06-05T21:42:25.220Z,2.43
2017-06-05T21:44:52.019Z,2.30
2017-06-05T21:47:18.795Z,2.30
2017-06-05T21:49:45.539Z,2.40
2017-06-05T21:52:12.320Z,2.70
2017-06-05T21:54:39.107Z,2.47
2017-06-05T21:57:05.879Z,2.30
2017-06-05T21:59:32.659Z,2.83
2017-06-05T22:01:59.397Z,3.13
2017-06-05T22:04:26.139Z,2.90
2017-06-05T22:06:52.966Z,3.17
2017-06-05T22:09:19.757Z,2.80
2017-06-05T22:11:46.520Z,2.63
2017-06-05T22:14:13.345Z,2.93
2017-06-05T22:16:40.092Z,3.20
2017-06-05T22:19:06.846Z,3.10
2017-06-05T22:21:33.629Z,2.80
